Map

Track Data

SID SEASON NUMBER BASIN SUBBASIN NAME ISO_TIME NATURE LAT LON WMO_WIND WMO_PRES WMO_AGENCY TRACK_TYPE DIST2LAND LANDFALL IFLAG USA_AGENCY USA_ATCF_ID USA_LAT USA_LON USA_RECORD USA_STATUS USA_WIND USA_PRES USA_SSHS USA_R34_NE USA_R34_SE USA_R34_SW USA_R34_NW USA_R50_NE USA_R50_SE USA_R50_SW USA_R50_NW USA_R64_NE USA_R64_SE USA_R64_SW USA_R64_NW USA_POCI USA_ROCI USA_RMW USA_EYE TOKYO_LAT TOKYO_LON TOKYO_GRADE TOKYO_WIND TOKYO_PRES TOKYO_R50_DIR TOKYO_R50_LONG TOKYO_R50_SHORT TOKYO_R30_DIR TOKYO_R30_LONG TOKYO_R30_SHORT TOKYO_LAND CMA_LAT CMA_LON CMA_CAT CMA_WIND CMA_PRES HKO_LAT HKO_LON HKO_CAT HKO_WIND HKO_PRES NEWDELHI_LAT NEWDELHI_LON NEWDELHI_GRADE NEWDELHI_WIND NEWDELHI_PRES NEWDELHI_CI NEWDELHI_DP NEWDELHI_POCI REUNION_LAT REUNION_LON REUNION_TYPE REUNION_WIND REUNION_PRES REUNION_TNUM REUNION_CI REUNION_RMW REUNION_R34_NE REUNION_R34_SE REUNION_R34_SW REUNION_R34_NW REUNION_R50_NE REUNION_R50_SE REUNION_R50_SW REUNION_R50_NW REUNION_R64_NE REUNION_R64_SE REUNION_R64_SW REUNION_R64_NW BOM_LAT BOM_LON BOM_TYPE BOM_WIND BOM_PRES BOM_TNUM BOM_CI BOM_RMW BOM_R34_NE BOM_R34_SE BOM_R34_SW BOM_R34_NW BOM_R50_NE BOM_R50_SE BOM_R50_SW BOM_R50_NW BOM_R64_NE BOM_R64_SE BOM_R64_SW BOM_R64_NW BOM_ROCI BOM_POCI BOM_EYE BOM_POS_METHOD BOM_PRES_METHOD NADI_LAT NADI_LON NADI_CAT NADI_WIND NADI_PRES WELLINGTON_LAT WELLINGTON_LON WELLINGTON_WIND WELLINGTON_PRES DS824_LAT DS824_LON DS824_STAGE DS824_WIND DS824_PRES TD9636_LAT TD9636_LON TD9636_STAGE TD9636_WIND TD9636_PRES TD9635_LAT TD9635_LON TD9635_WIND TD9635_PRES TD9635_ROCI NEUMANN_LAT NEUMANN_LON NEUMANN_CLASS NEUMANN_WIND NEUMANN_PRES MLC_LAT MLC_LON MLC_CLASS MLC_WIND MLC_PRES USA_GUST BOM_GUST BOM_GUST_PER REUNION_GUST REUNION_GUST_PER USA_SEAHGT USA_SEARAD_NE USA_SEARAD_SE USA_SEARAD_SW USA_SEARAD_NW STORM_SPEED STORM_DIR
1867345S19059 1868 28 SI MM NOT_NAMED 1867-12-11 00:00:00 NR -19.0000 58.5000 main 148 130 __________O___ -1 -19.0000 58.5000 7 9 147
1867345S19059 1868 28 SI MM NOT_NAMED 1867-12-11 03:00:00 NR -19.3644 58.7458 main 130 130 __________P___ -1 -19.3644 58.7458 7 5 153
1867345S19059 1868 28 SI MM NOT_NAMED 1867-12-11 06:00:00 NR -19.4847 58.7628 reunion main 133 127 _____O____P___ -1 -18.8000 58.1000 99 9.90000 -19.7129 58.9838 7 4 156
1867345S19059 1868 28 SI MM NOT_NAMED 1867-12-11 09:00:00 NR -19.7000 58.9021 main 133 127 _____P____P___ -1 -19.0401 58.2965 99 -20.0299 59.2049 7 4 148
1867345S19059 1868 28 SI MM NOT_NAMED 1867-12-11 12:00:00 NR -19.8618 59.0106 main 133 133 _____P____O___ -1 -19.2774 58.4914 99 -20.3000 59.4000 7 4 146
1867345S19059 1868 28 SI MM NOT_NAMED 1867-12-11 15:00:00 NR -20.0109 59.1223 main 139 139 _____P____P___ -1 -19.5094 58.6824 99 -20.5124 59.5623 7 4 143
1867345S19059 1868 28 SI MM NOT_NAMED 1867-12-11 18:00:00 NR -20.2042 59.2814 main 156 156 _____P____P___ -1 -19.7335 58.8673 99 -20.6748 59.6955 7 5 142
1867345S19059 1868 28 SI MM NOT_NAMED 1867-12-11 21:00:00 NR -20.3735 59.4249 main 167 167 _____P____P___ -1 -19.9472 59.0438 99 -20.7999 59.8059 7 4 141
1867345S19059 1868 28 SI MM NOT_NAMED 1867-12-12 00:00:00 NR -20.5239 59.5548 main 188 188 _____P____O___ -1 -20.1478 59.2097 99 -20.9000 59.9000 7 4 141
1867345S19059 1868 28 SI MM NOT_NAMED 1867-12-12 03:00:00 NR -20.6586 59.6740 main 202 202 _____P____P___ -1 -20.3329 59.3625 99 -20.9843 59.9855 7 3 140
1867345S19059 1868 28 SI MM NOT_NAMED 1867-12-12 06:00:00 NR -20.7750 59.7789 reunion main 215 215 _____O____P___ -1 -20.5000 59.5000 99 9.90000 -21.0499 60.0578 7 3 140
1867345S19059 1868 28 SI MM NOT_NAMED 1867-12-12 09:00:00 NR -20.8815 59.8734 main 228 228 _____P____P___ -1 -20.6475 59.6207 99 -21.1156 60.1261 7 3 141
1867345S19059 1868 28 SI MM NOT_NAMED 1867-12-12 12:00:00 NR -20.9890 59.9632 main 241 241 _____P____O___ -1 -20.7780 59.7264 99 -21.2000 60.2000 7 3 144
1867345S19059 1868 28 SI MM NOT_NAMED 1867-12-12 15:00:00 NR -21.1137 60.0583 main 255 255 _____P____P___ -1 -20.8950 59.8199 99 -21.3325 60.2968 7 3 145
1867345S19059 1868 28 SI MM NOT_NAMED 1867-12-12 18:00:00 NR -21.2435 60.1519 main 269 269 _____P____P___ -1 -21.0019 59.9039 99 -21.4850 60.3999 7 3 147
1867345S19059 1868 28 SI MM NOT_NAMED 1867-12-12 21:00:00 NR -21.3737 60.2421 main 278 278 _____P____P___ -1 -21.1024 59.9811 99 -21.6450 60.5030 7 3 148
1867345S19059 1868 28 SI MM NOT_NAMED 1867-12-13 00:00:00 NR -21.5000 60.3272 main 292 292 _____P____O___ -1 -21.2000 60.0543 99 -21.8000 60.6000 7 3 149
1867345S19059 1868 28 SI MM NOT_NAMED 1867-12-13 03:00:00 NR -21.6151 60.4023 main 305 305 _____P____P___ -1 -21.2980 60.1264 99 -21.9321 60.6782 7 3 150
1867345S19059 1868 28 SI MM NOT_NAMED 1867-12-13 06:00:00 NR -21.7287 60.4751 reunion main 319 319 _____O____P___ -1 -21.4000 60.2000 99 9.90000 -22.0574 60.7502 7 3 148
1867345S19059 1868 28 SI MM NOT_NAMED 1867-12-13 09:00:00 NR -21.8487 60.5548 main 333 333 _____P____P___ -1 -21.5184 60.2876 99 -22.1790 60.8220 7 3 148
1867345S19059 1868 28 SI MM NOT_NAMED 1867-12-13 12:00:00 NR -21.9693 60.6376 main 344 344 _____P____O___ -1 -21.6387 60.3752 99 -22.3000 60.9000 7 3 146
1867345S19059 1868 28 SI MM NOT_NAMED 1867-12-13 15:00:00 NR -22.0929 60.7298 main 358 358 _____P____P___ -1 -21.7609 60.4627 99 -22.4250 60.9969 7 3 145
1867345S19059 1868 28 SI MM NOT_NAMED 1867-12-13 18:00:00 NR -22.2175 60.8251 main 373 373 _____P____P___ -1 -21.8849 60.5503 99 -22.5500 61.1000 7 3 145
1867345S19059 1868 28 SI MM NOT_NAMED 1867-12-13 21:00:00 NR -22.3429 60.9204 main 387 387 _____P____P___ -1 -22.0109 60.6377 99 -22.6750 61.2031 7 3 145
1867345S19059 1868 28 SI MM NOT_NAMED 1867-12-14 00:00:00 NR -22.4693 61.0126 main 408 408 _____P____O___ -1 -22.1387 60.7252 99 -22.8000 61.3000 7 3 147
1867345S19059 1868 28 SI MM NOT_NAMED 1867-12-14 03:00:00 NR -22.5967 61.0993 main 422 422 _____P____P___ -1 -22.2684 60.8126 99 -22.9250 61.3859 7 2 150
1867345S19059 1868 28 SI MM NOT_NAMED 1867-12-14 06:00:00 NR -22.6786 61.1410 reunion main 428 428 _____O____P___ -1 -22.4000 60.9000 99 9.90000 -23.0500 61.4624 7 2 156
1867345S19059 1868 28 SI MM NOT_NAMED 1867-12-14 09:00:00 NR -22.7456 61.1681 main 437 437 _____P____P___ -1 -22.5309 60.9857 99 -23.1750 61.5328 7 1 161
1867345S19059 1868 28 SI MM NOT_NAMED 1867-12-14 12:00:00 NR -22.7909 61.1770 main 443 443 _____P____O___ -1 -22.6637 61.0712 99 -23.3000 61.6000 7 1 200
1867345S19059 1868 28 SI MM NOT_NAMED 1867-12-14 15:00:00 NR -22.7983 61.1568 main 443 443 _____P________ -1 -22.7983 61.1568 99 7 2 160
1867345S19059 1868 28 SI MM NOT_NAMED 1867-12-14 18:00:00 NR -22.9349 61.2429 main 450 450 _____P________ -1 -22.9349 61.2429 99 7 3 150
1867345S19059 1868 28 SI MM NOT_NAMED 1867-12-14 21:00:00 NR -23.0733 61.3299 main 471 471 _____P________ -1 -23.0733 61.3299 99 7 3 149
1867345S19059 1868 28 SI MM NOT_NAMED 1867-12-15 00:00:00 NR -23.2137 61.4181 main 486 486 _____P________ -1 -23.2137 61.4181 99 3 150
1867345S19059 1868 28 SI MM NOT_NAMED 1867-12-15 03:00:00 NR -23.3559 61.5080 main 508 508 _____P________ -1 -23.3559 61.5080 99 3 150
1867345S19059 1868 28 SI MM NOT_NAMED 1867-12-15 06:00:00 NR -23.5000 61.6000 reunion main 523 523 _____O________ -1 -23.5000 61.6000 99 9.90000 3 149
1867345S19059 1868 28 SI MM NOT_NAMED 1867-12-15 09:00:00 NR -23.6460 61.6943 main 538 538 _____P________ -1 -23.6460 61.6943 99 3 149
1867345S19059 1868 28 SI MM NOT_NAMED 1867-12-15 12:00:00 NR -23.7936 61.7907 main 560 560 _____P________ -1 -23.7936 61.7907 99 3 149
1867345S19059 1868 28 SI MM NOT_NAMED 1867-12-15 15:00:00 NR -23.9426 61.8891 main 575 575 _____P________ -1 -23.9426 61.8891 99 4 149
1867345S19059 1868 28 SI MM NOT_NAMED 1867-12-15 18:00:00 NR -24.0928 61.9891 main 597 597 _____P________ -1 -24.0928 61.9891 99 4 148
1867345S19059 1868 28 SI MM NOT_NAMED 1867-12-15 21:00:00 NR -24.2438 62.0905 main 612 612 _____P________ -1 -24.2438 62.0905 99 4 148
1867345S19059 1868 28 SI MM NOT_NAMED 1867-12-16 00:00:00 NR -24.3956 62.1929 main 635 635 _____P________ -1 -24.3956 62.1929 99 4 149
1867345S19059 1868 28 SI MM NOT_NAMED 1867-12-16 03:00:00 NR -24.5477 62.2962 main 650 650 _____P________ -1 -24.5477 62.2962 99 4 148
1867345S19059 1868 28 SI MM NOT_NAMED 1867-12-16 06:00:00 NR -24.7000 62.4000 reunion main 672 _____O________ -1 -24.7000 62.4000 99 9.90000 4 147

About IBTrACS Database

This database is a web-friendly format of International Best Track Archive for Climate Stewardship (IBTrACS), a global best track data archive curated by NOAA dating back to 1842.

Updated: 2021-12-03